Time;durP1;ratioP1;P1;durP2;ratioP2;P2;SDS_P1;SDS_P2;PMS_P1;PMS_P2;Temp;Humidity;BMP_temperature;BMP_pressure;BME280_temperature;BME280_humidity;BME280_pressure;Samples;Min_cycle;Max_cycle;Signal;HPM_P1;HPM_P2
2023/04/14 01:47:44;;;;;;;1999.90;999.90;;;;;;;;;;6211523;22;20471;-73
2023/04/14 01:50:30;;;;;;;1999.90;999.90;;;;;;;;;;6214470;23;20171;-73
2023/04/14 01:53:17;;;;;;;1999.90;999.90;;;;;;;;;;6215125;23;20167;-72
2023/04/14 01:56:02;;;;;;;1999.90;999.90;;;;;;;;;;6215739;23;20629;-74
2023/04/14 01:58:48;;;;;;;1999.90;999.90;;;;;;;;;;6215412;23;20276;-73
2023/04/14 02:01:34;;;;;;;1999.90;999.90;;;;;;;;;;6215633;23;20615;-74
2023/04/14 02:04:22;;;;;;;1999.90;999.90;;;;;;;;;;6213400;23;20858;-73
2023/04/14 02:07:09;;;;;;;1999.90;999.90;;;;;;;;;;6215368;23;20251;-74
2023/04/14 02:09:56;;;;;;;1999.90;999.90;;;;;;;;;;6214725;23;20238;-73
2023/04/14 02:12:42;;;;;;;1999.90;999.90;;;;;;;;;;6214997;23;20172;-74
2023/04/14 02:15:28;;;;;;;1999.90;999.90;;;;;;;;;;6215108;23;20226;-74
2023/04/14 02:18:13;;;;;;;1999.90;999.90;;;;;;;;;;6215108;23;20206;-71
2023/04/14 02:21:01;;;;;;;1999.90;999.90;;;;;;;;;;6214789;23;20220;-73
2023/04/14 02:23:46;;;;;;;1999.90;999.90;;;;;;;;;;6214956;23;20170;-73
2023/04/14 02:26:32;;;;;;;1999.90;999.90;;;;;;;;;;6215205;23;20655;-72
2023/04/14 02:29:20;;;;;;;1999.90;999.90;;;;;;;;;;6215180;23;20206;-73
2023/04/14 02:32:05;;;;;;;1999.90;999.90;;;;;;;;;;6215216;23;20214;-73
2023/04/14 02:34:52;;;;;;;1999.90;999.90;;;;;;;;;;6214679;23;20374;-72
2023/04/14 02:37:40;;;;;;;1999.90;999.90;;;;;;;;;;6215443;23;20532;-72
2023/04/14 02:40:27;;;;;;;1999.90;999.90;;;;;;;;;;6214721;23;20170;-69
2023/04/14 02:43:13;;;;;;;1999.90;999.90;;;;;;;;;;6215066;23;20167;-72
2023/04/14 02:46:00;;;;;;;1999.90;999.90;;;;;;;;;;6214888;23;20261;-71
2023/04/14 02:48:46;;;;;;;1999.90;999.90;;;;;;;;;;6213273;23;20472;-74
2023/04/14 02:51:32;;;;;;;1999.90;999.90;;;;;;;;;;6214923;23;20167;-70
2023/04/14 02:54:20;;;;;;;1999.90;999.90;;;;;;;;;;6214534;23;20183;-73
2023/04/14 02:57:06;;;;;;;1999.90;999.90;;;;;;;;;;6214480;23;20167;-72
2023/04/14 02:59:52;;;;;;;1999.90;999.90;;;;;;;;;;6214461;23;20238;-73
2023/04/14 03:02:37;;;;;;;1999.90;999.90;;;;;;;;;;6214817;23;20216;-72
2023/04/14 03:05:23;;;;;;;1999.90;999.90;;;;;;;;;;6214292;23;20215;-72
2023/04/14 03:08:10;;;;;;;1999.90;999.90;;;;;;;;;;6214368;23;20207;-72
2023/04/14 03:10:57;;;;;;;1999.90;999.90;;;;;;;;;;6214634;23;20169;-72
2023/04/14 03:13:43;;;;;;;1999.90;999.90;;;;;;;;;;6214354;23;20226;-72
2023/04/14 03:16:28;;;;;;;1999.90;999.90;;;;;;;;;;6214566;23;20643;-72
2023/04/14 03:19:14;;;;;;;1999.90;999.90;;;;;;;;;;6215006;23;20254;-69
2023/04/14 03:21:59;;;;;;;1999.90;999.90;;;;;;;;;;6213891;23;20713;-71
2023/04/14 03:24:45;;;;;;;1999.90;999.90;;;;;;;;;;6214442;23;20702;-72
2023/04/14 03:27:31;;;;;;;1999.90;999.90;;;;;;;;;;6212939;23;20202;-72
2023/04/14 03:30:17;;;;;;;1999.90;999.90;;;;;;;;;;6214841;23;20211;-70
2023/04/14 03:33:05;;;;;;;1999.90;999.90;;;;;;;;;;6214603;23;20170;-70
2023/04/14 03:35:52;;;;;;;1999.90;999.90;;;;;;;;;;6213696;23;20383;-73
2023/04/14 03:38:38;;;;;;;1999.90;999.90;;;;;;;;;;6214640;23;20693;-73
2023/04/14 03:41:24;;;;;;;1999.90;999.90;;;;;;;;;;6214852;23;20169;-74
2023/04/14 03:44:14;;;;;;;1999.90;999.90;;;;;;;;;;6214487;23;20677;-72
2023/04/14 03:47:02;;;;;;;1999.90;999.90;;;;;;;;;;6214720;23;20169;-73
2023/04/14 03:49:48;;;;;;;1999.90;999.90;;;;;;;;;;6214244;23;20255;-73
2023/04/14 03:52:35;;;;;;;1999.90;999.90;;;;;;;;;;6213678;23;20576;-73
2023/04/14 03:55:19;;;;;;;1999.90;999.90;;;;;;;;;;6214408;23;20179;-73
2023/04/14 03:58:07;;;;;;;1999.90;999.90;;;;;;;;;;6214346;23;20540;-73
2023/04/14 04:00:53;;;;;;;1999.90;999.90;;;;;;;;;;6213426;23;20165;-73
2023/04/14 04:03:39;;;;;;;1999.90;999.90;;;;;;;;;;6214064;23;20169;-74
2023/04/14 04:06:24;;;;;;;1999.90;999.90;;;;;;;;;;6213784;23;20162;-73
2023/04/14 04:09:11;;;;;;;1999.90;999.90;;;;;;;;;;6214129;23;20685;-73
2023/04/14 04:11:57;;;;;;;1999.90;999.90;;;;;;;;;;6213738;23;20165;-74
2023/04/14 04:14:42;;;;;;;1999.90;999.90;;;;;;;;;;6213777;23;20182;-73
2023/04/14 04:17:29;;;;;;;1999.90;999.90;;;;;;;;;;6213786;23;20241;-71
2023/04/14 04:20:15;;;;;;;1999.90;999.90;;;;;;;;;;6213652;23;20166;-74
2023/04/14 04:23:01;;;;;;;1999.90;999.90;;;;;;;;;;6213897;23;20165;-73
2023/04/14 04:25:46;;;;;;;1999.90;999.90;;;;;;;;;;6213514;23;20190;-72
2023/04/14 04:28:31;;;;;;;1999.90;999.90;;;;;;;;;;6213921;23;20205;-73
2023/04/14 04:31:16;;;;;;;1999.90;999.90;;;;;;;;;;6213066;23;20165;-73
2023/04/14 04:34:03;;;;;;;1999.90;999.90;;;;;;;;;;6213831;23;20165;-73
2023/04/14 04:36:49;;;;;;;1999.90;999.90;;;;;;;;;;6213480;23;20647;-73
2023/04/14 04:39:34;;;;;;;1999.90;999.90;;;;;;;;;;6213525;23;20170;-71
2023/04/14 04:42:19;;;;;;;1999.90;999.90;;;;;;;;;;6213759;23;20634;-73
2023/04/14 04:45:04;;;;;;;1999.90;999.90;;;;;;;;;;6213559;23;20196;-73
2023/04/14 04:47:49;;;;;;;1999.90;999.90;;;;;;;;;;6213765;23;20287;-73
2023/04/14 04:50:35;;;;;;;1999.90;999.90;;;;;;;;;;6213323;23;20171;-73
2023/04/14 04:53:20;;;;;;;1999.90;999.90;;;;;;;;;;6214043;23;20256;-73
2023/04/14 04:56:06;;;;;;;1999.90;999.90;;;;;;;;;;6213429;23;20228;-73
2023/04/14 04:58:51;;;;;;;1999.90;999.90;;;;;;;;;;6213791;23;20585;-73
2023/04/14 05:01:36;;;;;;;1999.90;999.90;;;;;;;;;;6213138;23;20183;-73
2023/04/14 05:04:21;;;;;;;1999.90;999.90;;;;;;;;;;6211000;23;20463;-73
2023/04/14 05:07:08;;;;;;;1999.90;999.90;;;;;;;;;;6213726;23;20265;-73
2023/04/14 05:09:53;;;;;;;1999.90;999.90;;;;;;;;;;6213310;23;20170;-73
2023/04/14 05:12:38;;;;;;;1999.90;999.90;;;;;;;;;;6215654;23;20170;-71
2023/04/14 05:15:22;;;;;;;1999.90;999.90;;;;;;;;;;6215374;23;20162;-73
2023/04/14 05:18:07;;;;;;;1999.90;999.90;;;;;;;;;;6215062;23;20374;-73
2023/04/14 05:20:52;;;;;;;1999.90;999.90;;;;;;;;;;6215285;23;20170;-74
2023/04/14 05:23:40;;;;;;;1999.90;999.90;;;;;;;;;;6215190;23;20252;-73
2023/04/14 05:26:26;;;;;;;1999.90;999.90;;;;;;;;;;6215743;23;20648;-73
2023/04/14 05:29:11;;;;;;;1999.90;999.90;;;;;;;;;;6214346;23;20201;-71
2023/04/14 05:31:56;;;;;;;1999.90;999.90;;;;;;;;;;6215948;23;20235;-71
2023/04/14 05:34:41;;;;;;;1999.90;999.90;;;;;;;;;;6215781;23;20255;-74
2023/04/14 05:37:28;;;;;;;1999.90;999.90;;;;;;;;;;6215775;23;20665;-73
2023/04/14 05:40:15;;;;;;;1999.90;999.90;;;;;;;;;;6215777;23;20214;-72
2023/04/14 05:43:00;;;;;;;1999.90;999.90;;;;;;;;;;6215680;23;20255;-73
2023/04/14 05:45:46;;;;;;;1999.90;999.90;;;;;;;;;;6215889;23;20265;-73
2023/04/14 05:48:32;;;;;;;1999.90;999.90;;;;;;;;;;6215470;23;20263;-73
2023/04/14 05:51:17;;;;;;;1999.90;999.90;;;;;;;;;;6215714;23;20171;-73
2023/04/14 05:54:02;;;;;;;1999.90;999.90;;;;;;;;;;6215028;23;20177;-73
2023/04/14 05:56:48;;;;;;;1999.90;999.90;;;;;;;;;;6215686;23;20165;-71
2023/04/14 05:59:33;;;;;;;1999.90;999.90;;;;;;;;;;6215553;23;20177;-68
2023/04/14 06:02:18;;;;;;;1999.90;999.90;;;;;;;;;;6215506;23;20518;-74
2023/04/14 06:05:05;;;;;;;1999.90;999.90;;;;;;;;;;6215488;23;20266;-74
2023/04/14 06:07:50;;;;;;;1999.90;999.90;;;;;;;;;;6215573;23;20693;-73
2023/04/14 06:10:35;;;;;;;1999.90;999.90;;;;;;;;;;6215711;23;20710;-70
2023/04/14 06:13:22;;;;;;;1999.90;999.90;;;;;;;;;;6215664;23;20172;-71
2023/04/14 06:16:07;;;;;;;1999.90;999.90;;;;;;;;;;6215805;23;20542;-70
2023/04/14 06:18:52;;;;;;;1999.90;999.90;;;;;;;;;;6215317;23;20220;-74
2023/04/14 06:21:37;;;;;;;1999.90;999.90;;;;;;;;;;6215346;23;20178;-74
2023/04/14 06:24:22;;;;;;;1999.90;999.90;;;;;;;;;;6214417;23;20169;-72
2023/04/14 06:27:08;;;;;;;1999.90;999.90;;;;;;;;;;6214716;23;20163;-69
2023/04/14 06:29:54;;;;;;;1999.90;999.90;;;;;;;;;;6214760;23;20568;-71
2023/04/14 06:32:39;;;;;;;1999.90;999.90;;;;;;;;;;6214961;23;20170;-71
2023/04/14 06:35:24;;;;;;;1999.90;999.90;;;;;;;;;;6215225;23;20243;-71
2023/04/14 06:38:09;;;;;;;1999.90;999.90;;;;;;;;;;6215134;23;20217;-71
2023/04/14 06:40:54;;;;;;;1999.90;999.90;;;;;;;;;;6214152;23;20430;-71
2023/04/14 06:43:39;;;;;;;1999.90;999.90;;;;;;;;;;6215003;23;20678;-71
2023/04/14 06:46:25;;;;;;;1999.90;999.90;;;;;;;;;;6213806;23;20262;-70
2023/04/14 06:49:10;;;;;;;1999.90;999.90;;;;;;;;;;6213932;23;20693;-71
2023/04/14 06:51:55;;;;;;;1999.90;999.90;;;;;;;;;;6214630;23;20512;-70
2023/04/14 06:54:41;;;;;;;1999.90;999.90;;;;;;;;;;6212903;23;20379;-72
2023/04/14 06:57:26;;;;;;;1999.90;999.90;;;;;;;;;;6214783;23;20267;-71
2023/04/14 07:00:11;;;;;;;1999.90;999.90;;;;;;;;;;6213897;23;20169;-70
2023/04/14 07:02:58;;;;;;;1999.90;999.90;;;;;;;;;;6214149;23;20189;-70
2023/04/14 07:05:43;;;;;;;1999.90;999.90;;;;;;;;;;6214610;23;20264;-71
2023/04/14 07:08:30;;;;;;;1999.90;999.90;;;;;;;;;;6214217;23;20320;-71
2023/04/14 07:11:15;;;;;;;1999.90;999.90;;;;;;;;;;6212358;23;20627;-71
2023/04/14 07:14:00;;;;;;;1999.90;999.90;;;;;;;;;;6213328;23;20270;-71
2023/04/14 07:16:45;;;;;;;1999.90;999.90;;;;;;;;;;6214564;23;20169;-71
2023/04/14 07:19:32;;;;;;;1999.90;999.90;;;;;;;;;;6213661;23;20169;-72
2023/04/14 07:22:17;;;;;;;1999.90;999.90;;;;;;;;;;6214169;23;20168;-73
2023/04/14 07:25:02;;;;;;;1999.90;999.90;;;;;;;;;;6212721;23;20305;-70
2023/04/14 07:27:47;;;;;;;1999.90;999.90;;;;;;;;;;6213950;23;20202;-70
2023/04/14 07:30:32;;;;;;;1999.90;999.90;;;;;;;;;;6214084;23;20169;-73
2023/04/14 07:33:17;;;;;;;1999.90;999.90;;;;;;;;;;6213601;23;20574;-72
2023/04/14 07:36:05;;;;;;;1999.90;999.90;;;;;;;;;;6214365;23;20221;-73
2023/04/14 07:38:50;;;;;;;1999.90;999.90;;;;;;;;;;6213436;23;20201;-72
2023/04/14 07:41:35;;;;;;;1999.90;999.90;;;;;;;;;;6214133;23;20173;-72
2023/04/14 07:44:21;;;;;;;1999.90;999.90;;;;;;;;;;6213032;23;20185;-72
2023/04/14 07:47:05;;;;;;;1999.90;999.90;;;;;;;;;;6213945;23;20200;-70
2023/04/14 07:49:51;;;;;;;1999.90;999.90;;;;;;;;;;6213813;23;20169;-70
2023/04/14 07:52:38;;;;;;;1999.90;999.90;;;;;;;;;;6212600;23;20205;-71
2023/04/14 07:55:23;;;;;;;1999.90;999.90;;;;;;;;;;6213807;23;20166;-71
2023/04/14 07:58:08;;;;;;;1999.90;999.90;;;;;;;;;;6213321;23;20582;-71
2023/04/14 08:00:53;;;;;;;1999.90;999.90;;;;;;;;;;6213973;23;20172;-71
2023/04/14 08:03:38;;;;;;;1999.90;999.90;;;;;;;;;;6213841;23;20190;-72
2023/04/14 08:06:23;;;;;;;1999.90;999.90;;;;;;;;;;6213328;23;20632;-70
2023/04/14 08:09:09;;;;;;;1999.90;999.90;;;;;;;;;;6212574;23;20205;-71
2023/04/14 08:11:55;;;;;;;1999.90;999.90;;;;;;;;;;6211872;23;20592;-70
2023/04/14 08:14:40;;;;;;;1999.90;999.90;;;;;;;;;;6213712;23;20394;-70
2023/04/14 08:17:26;;;;;;;1999.90;999.90;;;;;;;;;;6214057;23;20281;-70
2023/04/14 08:20:11;;;;;;;1999.90;999.90;;;;;;;;;;6214238;23;20769;-70
2023/04/14 08:22:56;;;;;;;1999.90;999.90;;;;;;;;;;6213950;23;20173;-70
2023/04/14 08:25:43;;;;;;;1999.90;999.90;;;;;;;;;;6214048;23;20192;-70
2023/04/14 08:28:28;;;;;;;1999.90;999.90;;;;;;;;;;6213958;23;20248;-70
2023/04/14 08:31:13;;;;;;;1999.90;999.90;;;;;;;;;;6214126;23;20165;-71
2023/04/14 08:33:58;;;;;;;1999.90;999.90;;;;;;;;;;6213879;23;20201;-70
2023/04/14 08:36:43;;;;;;;1999.90;999.90;;;;;;;;;;6214107;23;20160;-71
2023/04/14 08:39:28;;;;;;;1999.90;999.90;;;;;;;;;;6213824;23;20204;-71
2023/04/14 08:42:15;;;;;;;1999.90;999.90;;;;;;;;;;6214059;23;20233;-71
2023/04/14 08:45:00;;;;;;;1999.90;999.90;;;;;;;;;;6213837;23;20545;-71
2023/04/14 08:47:45;;;;;;;1999.90;999.90;;;;;;;;;;6213806;23;20208;-72
2023/04/14 08:50:32;;;;;;;1999.90;999.90;;;;;;;;;;6213892;23;20189;-71
2023/04/14 08:53:19;;;;;;;1999.90;999.90;;;;;;;;;;6214110;23;20169;-71
2023/04/14 08:56:05;;;;;;;1999.90;999.90;;;;;;;;;;6214021;23;20645;-71
2023/04/14 08:58:52;;;;;;;1999.90;999.90;;;;;;;;;;6213757;23;20252;-71
2023/04/14 09:01:37;;;;;;;1999.90;999.90;;;;;;;;;;6213795;23;20213;-72
2023/04/14 09:04:23;;;;;;;1999.90;999.90;;;;;;;;;;6213682;23;20168;-70
2023/04/14 09:07:08;;;;;;;1999.90;999.90;;;;;;;;;;6213720;23;20201;-71
2023/04/14 09:09:53;;;;;;;1999.90;999.90;;;;;;;;;;6213800;23;20166;-72
2023/04/14 09:12:39;;;;;;;1999.90;999.90;;;;;;;;;;6213689;23;20504;-70
2023/04/14 09:15:27;;;;;;;1999.90;999.90;;;;;;;;;;6213812;23;20166;-70
2023/04/14 09:18:12;;;;;;;1999.90;999.90;;;;;;;;;;6212285;23;20399;-71
2023/04/14 09:20:57;;;;;;;1999.90;999.90;;;;;;;;;;6213993;23;20170;-71
2023/04/14 09:23:42;;;;;;;1999.90;999.90;;;;;;;;;;6213665;23;20634;-71
2023/04/14 09:26:28;;;;;;;1999.90;999.90;;;;;;;;;;6213761;23;20193;-70
2023/04/14 09:29:13;;;;;;;1999.90;999.90;;;;;;;;;;6213725;23;20205;-71
2023/04/14 09:31:59;;;;;;;1999.90;999.90;;;;;;;;;;6213893;23;20185;-71
2023/04/14 09:34:48;;;;;;;1999.90;999.90;;;;;;;;;;6213835;23;20213;-71
2023/04/14 09:37:42;;;;;;;1999.90;999.90;;;;;;;;;;6214182;23;20244;-71
2023/04/14 09:40:28;;;;;;;1999.90;999.90;;;;;;;;;;6213689;23;20173;-71
2023/04/14 09:43:24;;;;;;;1999.90;999.90;;;;;;;;;;6214047;23;20241;-71
2023/04/14 09:46:09;;;;;;;1999.90;999.90;;;;;;;;;;6213744;23;20517;-72
2023/04/14 09:48:56;;;;;;;1999.90;999.90;;;;;;;;;;6213606;23;20665;-71
2023/04/14 09:51:41;;;;;;;1999.90;999.90;;;;;;;;;;6213825;23;20213;-70
2023/04/14 09:54:26;;;;;;;1999.90;999.90;;;;;;;;;;6213547;23;20170;-71
2023/04/14 09:57:12;;;;;;;1999.90;999.90;;;;;;;;;;6213883;23;20165;-71
2023/04/14 09:59:56;;;;;;;1999.90;999.90;;;;;;;;;;6215584;23;20213;-71
2023/04/14 10:02:47;;;;;;;1999.90;999.90;;;;;;;;;;6215571;23;20181;-72
2023/04/14 10:05:34;;;;;;;1999.90;999.90;;;;;;;;;;6215768;23;20165;-72
2023/04/14 10:08:19;;;;;;;1999.90;999.90;;;;;;;;;;6215446;23;20280;-71
2023/04/14 10:11:15;;;;;;;1999.90;999.90;;;;;;;;;;6215582;23;20169;-71
2023/04/14 10:14:02;;;;;;;1999.90;999.90;;;;;;;;;;6215297;23;20217;-71
2023/04/14 10:16:47;;;;;;;1999.90;999.90;;;;;;;;;;6215596;23;20166;-70
2023/04/14 10:19:32;;;;;;;1999.90;999.90;;;;;;;;;;6216052;23;20185;-72
2023/04/14 10:22:19;;;;;;;1999.90;999.90;;;;;;;;;;6215698;23;20170;-71
2023/04/14 10:25:05;;;;;;;1999.90;999.90;;;;;;;;;;6215446;23;20225;-71
2023/04/14 10:27:51;;;;;;;1999.90;999.90;;;;;;;;;;6215635;23;20213;-71
2023/04/14 10:30:37;;;;;;;1999.90;999.90;;;;;;;;;;6215321;23;20173;-71
2023/04/14 10:33:23;;;;;;;1999.90;999.90;;;;;;;;;;6215232;23;20166;-71
2023/04/14 10:36:09;;;;;;;1999.90;999.90;;;;;;;;;;6215440;23;20169;-71
2023/04/14 10:39:02;;;;;;;1999.90;999.90;;;;;;;;;;6213548;23;20848;-70
2023/04/14 10:41:47;;;;;;;1999.90;999.90;;;;;;;;;;6215316;23;20169;-70
2023/04/14 10:44:33;;;;;;;1999.90;999.90;;;;;;;;;;6215202;23;20245;-71
2023/04/14 10:47:23;;;;;;;1999.90;999.90;;;;;;;;;;6214921;23;20252;-70
2023/04/14 10:50:13;;;;;;;1999.90;999.90;;;;;;;;;;6215419;23;20217;-71
2023/04/14 10:52:58;;;;;;;1999.90;999.90;;;;;;;;;;6213570;23;20431;-71
2023/04/14 10:55:45;;;;;;;1999.90;999.90;;;;;;;;;;6215358;23;20170;-71
2023/04/14 10:58:31;;;;;;;1999.90;999.90;;;;;;;;;;6214884;23;20248;-72
2023/04/14 11:01:24;;;;;;;1999.90;999.90;;;;;;;;;;6215206;23;20169;-70
2023/04/14 11:04:17;;;;;;;1999.90;999.90;;;;;;;;;;6214817;23;20166;-70
2023/04/14 11:07:08;;;;;;;1999.90;999.90;;;;;;;;;;6215057;23;20191;-71
2023/04/14 11:09:58;;;;;;;1999.90;999.90;;;;;;;;;;6214743;23;20166;-72
2023/04/14 11:12:45;;;;;;;1999.90;999.90;;;;;;;;;;6215006;23;20646;-71
2023/04/14 11:15:49;;;;;;;1999.90;999.90;;;;;;;;;;6215005;23;20614;-71
2023/04/14 11:18:36;;;;;;;1999.90;999.90;;;;;;;;;;6214832;23;20209;-71
2023/04/14 11:21:21;;;;;;;1999.90;999.90;;;;;;;;;;6215002;23;20165;-71
2023/04/14 11:24:06;;;;;;;1999.90;999.90;;;;;;;;;;6214678;23;20209;-71
2023/04/14 11:26:52;;;;;;;1999.90;999.90;;;;;;;;;;6214876;23;20193;-71
2023/04/14 11:29:38;;;;;;;1999.90;999.90;;;;;;;;;;6214800;23;20209;-72
2023/04/14 11:32:23;;;;;;;1999.90;999.90;;;;;;;;;;6214724;23;20221;-71
2023/04/14 11:35:08;;;;;;;1999.90;999.90;;;;;;;;;;6214838;23;20256;-71
2023/04/14 11:37:54;;;;;;;1999.90;999.90;;;;;;;;;;6214937;23;20197;-71
2023/04/14 11:40:39;;;;;;;1999.90;999.90;;;;;;;;;;6213733;23;20821;-71
2023/04/14 11:43:24;;;;;;;1999.90;999.90;;;;;;;;;;6214484;23;20236;-71
2023/04/14 11:46:11;;;;;;;1999.90;999.90;;;;;;;;;;6214887;23;20166;-71
2023/04/14 11:48:56;;;;;;;1999.90;999.90;;;;;;;;;;6214328;23;20306;-71
2023/04/14 11:51:41;;;;;;;1999.90;999.90;;;;;;;;;;6214769;23;20174;-71
2023/04/14 11:54:34;;;;;;;1999.90;999.90;;;;;;;;;;6214417;23;20255;-71
2023/04/14 11:57:18;;;;;;;1999.90;999.90;;;;;;;;;;6214567;23;20250;-71
2023/04/14 12:00:04;;;;;;;1999.90;999.90;;;;;;;;;;6214710;23;20604;-70
2023/04/14 12:02:51;;;;;;;1999.90;999.90;;;;;;;;;;6214435;23;20626;-70
2023/04/14 12:05:37;;;;;;;1999.90;999.90;;;;;;;;;;6214508;23;20633;-71
2023/04/14 12:08:23;;;;;;;1999.90;999.90;;;;;;;;;;6214341;23;20723;-71
2023/04/14 12:11:12;;;;;;;1999.90;999.90;;;;;;;;;;6214546;23;20515;-70
2023/04/14 12:13:57;;;;;;;1999.90;999.90;;;;;;;;;;6212757;23;20792;-71
2023/04/14 12:16:42;;;;;;;1999.90;999.90;;;;;;;;;;6214699;23;20164;-71
2023/04/14 12:19:28;;;;;;;1999.90;999.90;;;;;;;;;;6214205;23;20280;-70
2023/04/14 12:22:14;;;;;;;1999.90;999.90;;;;;;;;;;6214569;23;20512;-71
2023/04/14 12:25:09;;;;;;;1999.90;999.90;;;;;;;;;;6214318;23;20530;-70
2023/04/14 12:27:55;;;;;;;1999.90;999.90;;;;;;;;;;6212894;23;20449;-70
2023/04/14 12:30:50;;;;;;;1999.90;999.90;;;;;;;;;;6214523;23;20713;-71
2023/04/14 12:33:35;;;;;;;1999.90;999.90;;;;;;;;;;6214014;23;20250;-71
2023/04/14 12:36:21;;;;;;;1999.90;999.90;;;;;;;;;;6214383;23;20254;-70
2023/04/14 12:39:06;;;;;;;1999.90;999.90;;;;;;;;;;6214152;23;20205;-71
2023/04/14 12:41:52;;;;;;;1999.90;999.90;;;;;;;;;;6214214;23;20165;-71
2023/04/14 12:44:37;;;;;;;1999.90;999.90;;;;;;;;;;6214000;23;20524;-71
2023/04/14 12:47:29;;;;;;;1999.90;999.90;;;;;;;;;;6214038;23;20193;-71
2023/04/14 12:50:24;;;;;;;1999.90;999.90;;;;;;;;;;6214269;23;20182;-71
2023/04/14 12:53:23;;;;;;;1999.90;999.90;;;;;;;;;;6214006;23;20170;-70
2023/04/14 12:56:09;;;;;;;1999.90;999.90;;;;;;;;;;6214173;23;20164;-71
2023/04/14 12:58:54;;;;;;;1999.90;999.90;;;;;;;;;;6213014;23;20430;-71
2023/04/14 13:05:00;;;;;;;1999.90;999.90;;;;;;;;;;6214165;23;20153;-69
2023/04/14 13:07:46;;;;;;;1999.90;999.90;;;;;;;;;;6214082;23;20240;-72
2023/04/14 13:10:32;;;;;;;1999.90;999.90;;;;;;;;;;6213910;23;20502;-70
2023/04/14 13:13:17;;;;;;;1999.90;999.90;;;;;;;;;;6212659;23;20365;-72
2023/04/14 13:16:02;;;;;;;1999.90;999.90;;;;;;;;;;6214173;23;20638;-71
2023/04/14 13:18:48;;;;;;;1999.90;999.90;;;;;;;;;;6213878;23;20236;-71
2023/04/14 13:21:33;;;;;;;1999.90;999.90;;;;;;;;;;6214022;23;20169;-72
2023/04/14 13:24:18;;;;;;;1999.90;999.90;;;;;;;;;;6213788;23;20612;-71
2023/04/14 13:27:05;;;;;;;1999.90;999.90;;;;;;;;;;6213955;23;20209;-71
2023/04/14 13:29:50;;;;;;;1999.90;999.90;;;;;;;;;;6213955;23;20298;-72
2023/04/14 13:32:35;;;;;;;1999.90;999.90;;;;;;;;;;6215067;23;20187;-71
2023/04/14 13:35:20;;;;;;;1999.90;999.90;;;;;;;;;;6216029;23;20181;-71
2023/04/14 13:38:05;;;;;;;1999.90;999.90;;;;;;;;;;6215911;23;20246;-71
2023/04/14 13:40:50;;;;;;;1999.90;999.90;;;;;;;;;;6216254;23;20186;-72
2023/04/14 13:43:36;;;;;;;1999.90;999.90;;;;;;;;;;6215700;23;20182;-71
2023/04/14 13:46:21;;;;;;;1999.90;999.90;;;;;;;;;;6215958;23;20512;-72
2023/04/14 13:49:07;;;;;;;1999.90;999.90;;;;;;;;;;6213882;23;21022;-71
2023/04/14 13:51:51;;;;;;;1999.90;999.90;;;;;;;;;;6215780;23;20166;-72
2023/04/14 13:54:36;;;;;;;1999.90;999.90;;;;;;;;;;6215858;23;20222;-71
2023/04/14 13:57:21;;;;;;;1999.90;999.90;;;;;;;;;;6215659;23;20162;-71
2023/04/14 14:00:09;;;;;;;1999.90;999.90;;;;;;;;;;6215601;23;20248;-71
2023/04/14 14:02:53;;;;;;;1999.90;999.90;;;;;;;;;;6215695;23;20257;-71
2023/04/14 14:05:38;;;;;;;1999.90;999.90;;;;;;;;;;6215872;23;20169;-71
2023/04/14 14:08:23;;;;;;;1999.90;999.90;;;;;;;;;;6215342;23;20297;-71
2023/04/14 14:11:08;;;;;;;1999.90;999.90;;;;;;;;;;6215625;23;20169;-70
2023/04/14 14:13:54;;;;;;;1999.90;999.90;;;;;;;;;;6215365;23;20164;-71
2023/04/14 14:16:40;;;;;;;1999.90;999.90;;;;;;;;;;6215504;23;20165;-70
2023/04/14 14:19:25;;;;;;;1999.90;999.90;;;;;;;;;;6215279;23;20212;-71
2023/04/14 14:22:10;;;;;;;1999.90;999.90;;;;;;;;;;6215867;23;20169;-71
2023/04/14 14:24:55;;;;;;;1999.90;999.90;;;;;;;;;;6215362;23;20183;-72
2023/04/14 14:27:40;;;;;;;1999.90;999.90;;;;;;;;;;6215302;23;20213;-70
2023/04/14 14:30:25;;;;;;;1999.90;999.90;;;;;;;;;;6215479;23;20238;-72
2023/04/14 14:33:11;;;;;;;1999.90;999.90;;;;;;;;;;6215446;23;20213;-71
2023/04/14 14:35:56;;;;;;;1999.90;999.90;;;;;;;;;;6215045;23;20860;-72
2023/04/14 14:38:41;;;;;;;1999.90;999.90;;;;;;;;;;6214951;23;20556;-72
2023/04/14 14:41:26;;;;;;;1999.90;999.90;;;;;;;;;;6215473;23;20169;-71
2023/04/14 14:44:11;;;;;;;1999.90;999.90;;;;;;;;;;6215019;23;20265;-71
2023/04/14 14:46:56;;;;;;;1999.90;999.90;;;;;;;;;;6215298;23;20169;-71
2023/04/14 14:49:42;;;;;;;1999.90;999.90;;;;;;;;;;6214961;23;20619;-71
2023/04/14 14:52:27;;;;;;;1999.90;999.90;;;;;;;;;;6213857;23;20420;-71
2023/04/14 14:55:12;;;;;;;1999.90;999.90;;;;;;;;;;6215320;23;20229;-71
2023/04/14 14:57:57;;;;;;;1999.90;999.90;;;;;;;;;;6214719;23;20253;-71
2023/04/14 15:00:42;;;;;;;1999.90;999.90;;;;;;;;;;6214250;23;20618;-72
2023/04/14 15:03:27;;;;;;;1999.90;999.90;;;;;;;;;;6214188;23;20185;-72
2023/04/14 15:06:13;;;;;;;1999.90;999.90;;;;;;;;;;6213105;23;20166;-72
2023/04/14 15:08:58;;;;;;;1999.90;999.90;;;;;;;;;;6213831;23;20275;-72
2023/04/14 15:11:43;;;;;;;1999.90;999.90;;;;;;;;;;6214734;23;20169;-72
2023/04/14 15:14:28;;;;;;;1999.90;999.90;;;;;;;;;;6214297;23;20492;-72
2023/04/14 15:17:13;;;;;;;1999.90;999.90;;;;;;;;;;6214585;23;20169;-72
2023/04/14 15:20:02;;;;;;;1999.90;999.90;;;;;;;;;;6213161;23;20249;-71
2023/04/14 15:22:49;;;;;;;1999.90;999.90;;;;;;;;;;6214158;23;20269;-71
2023/04/14 15:25:34;;;;;;;1999.90;999.90;;;;;;;;;;6214505;23;20174;-72
2023/04/14 15:28:18;;;;;;;1999.90;999.90;;;;;;;;;;6214243;23;20290;-70
2023/04/14 15:31:03;;;;;;;1999.90;999.90;;;;;;;;;;6214019;23;20513;-71
2023/04/14 15:33:49;;;;;;;1999.90;999.90;;;;;;;;;;6213326;23;20625;-71
2023/04/14 15:36:33;;;;;;;1999.90;999.90;;;;;;;;;;6210985;23;20165;-70
2023/04/14 15:39:20;;;;;;;1999.90;999.90;;;;;;;;;;6210376;23;20379;-72
2023/04/14 15:42:05;;;;;;;1999.90;999.90;;;;;;;;;;6212190;23;20301;-71
2023/04/14 15:44:50;;;;;;;1999.90;999.90;;;;;;;;;;6212678;23;20173;-71
2023/04/14 15:47:35;;;;;;;1999.90;999.90;;;;;;;;;;6211643;23;20204;-71
2023/04/14 15:50:20;;;;;;;1999.90;999.90;;;;;;;;;;6213079;23;20524;-69
2023/04/14 15:53:05;;;;;;;1999.90;999.90;;;;;;;;;;6214000;23;20166;-71
2023/04/14 15:55:52;;;;;;;1999.90;999.90;;;;;;;;;;6213838;23;20170;-71
2023/04/14 15:58:37;;;;;;;1999.90;999.90;;;;;;;;;;6213983;23;20205;-70
2023/04/14 16:01:22;;;;;;;1999.90;999.90;;;;;;;;;;6212994;23;20252;-71
2023/04/14 16:04:07;;;;;;;1999.90;999.90;;;;;;;;;;6214187;23;20552;-72
2023/04/14 16:06:52;;;;;;;1999.90;999.90;;;;;;;;;;6214027;23;20169;-71
2023/04/14 16:09:38;;;;;;;1999.90;999.90;;;;;;;;;;6213142;23;20194;-71
2023/04/14 16:12:24;;;;;;;1999.90;999.90;;;;;;;;;;6212352;23;20510;-70
2023/04/14 16:15:10;;;;;;;1999.90;999.90;;;;;;;;;;6214527;23;20169;-71
2023/04/14 16:17:55;;;;;;;1999.90;999.90;;;;;;;;;;6215755;23;20213;-71
2023/04/14 16:20:40;;;;;;;1999.90;999.90;;;;;;;;;;6215597;23;20182;-72
2023/04/14 16:23:24;;;;;;;1999.90;999.90;;;;;;;;;;6213775;23;20228;-72
2023/04/14 16:26:10;;;;;;;1999.90;999.90;;;;;;;;;;6213217;23;20373;-73
2023/04/14 16:28:57;;;;;;;1999.90;999.90;;;;;;;;;;6213418;23;20681;-73
2023/04/14 16:31:42;;;;;;;1999.90;999.90;;;;;;;;;;6214094;23;20556;-71
2023/04/14 16:34:26;;;;;;;1999.90;999.90;;;;;;;;;;6213888;23;20209;-72
2023/04/14 16:37:11;;;;;;;1999.90;999.90;;;;;;;;;;6214004;23;20221;-70
2023/04/14 16:39:57;;;;;;;1999.90;999.90;;;;;;;;;;6214010;23;20240;-71
2023/04/14 16:42:42;;;;;;;1999.90;999.90;;;;;;;;;;6211230;23;20265;-71
2023/04/14 16:45:30;;;;;;;1999.90;999.90;;;;;;;;;;6211570;23;20202;-71
2023/04/14 16:48:15;;;;;;;1999.90;999.90;;;;;;;;;;6211352;23;20673;-71
2023/04/14 16:51:03;;;;;;;1999.90;999.90;;;;;;;;;;6210745;23;20253;-71
2023/04/14 16:53:48;;;;;;;1999.90;999.90;;;;;;;;;;6211779;23;20165;-71
2023/04/14 16:56:34;;;;;;;1999.90;999.90;;;;;;;;;;6211399;23;20252;-71
2023/04/14 16:59:19;;;;;;;1999.90;999.90;;;;;;;;;;6211569;23;20201;-72
2023/04/14 17:02:05;;;;;;;1999.90;999.90;;;;;;;;;;6212205;23;20293;-71
2023/04/14 17:04:50;;;;;;;1999.90;999.90;;;;;;;;;;6212075;23;20254;-72
2023/04/14 17:07:35;;;;;;;1999.90;999.90;;;;;;;;;;6211891;23;20878;-72
2023/04/14 17:10:20;;;;;;;1999.90;999.90;;;;;;;;;;6211219;23;20165;-73
2023/04/14 17:13:04;;;;;;;1999.90;999.90;;;;;;;;;;6210275;23;20390;-72
2023/04/14 17:15:49;;;;;;;1999.90;999.90;;;;;;;;;;6213138;23;20508;-72